createdAt,value
2019-02-25T17:01:05.591Z,3.77
2019-02-25T17:03:37.582Z,4.30
2019-02-25T17:06:08.570Z,4.80
2019-02-25T17:08:37.202Z,4.87
2019-02-25T17:11:06.274Z,4.80
2019-02-25T17:13:37.108Z,4.50
2019-02-25T17:16:17.671Z,5.37
2019-02-25T17:18:37.495Z,6.03
2019-02-25T17:21:07.593Z,6.50
2019-02-25T17:23:38.827Z,5.20
2019-02-25T17:26:09.936Z,4.30
2019-02-25T17:28:38.754Z,5.30
2019-02-25T17:31:09.023Z,4.60
2019-02-25T17:33:39.441Z,4.70
2019-02-25T17:36:10.207Z,5.20
2019-02-25T17:38:41.117Z,4.60
2019-02-25T17:41:10.710Z,4.23
2019-02-25T17:43:42.966Z,4.83
2019-02-25T17:46:12.773Z,4.12
2019-02-25T17:48:42.535Z,3.83
2019-02-25T17:51:11.707Z,5.07
2019-02-25T17:53:40.801Z,4.10
2019-02-25T17:56:11.351Z,4.60
2019-02-25T17:58:42.389Z,4.77
2019-02-25T18:01:11.223Z,5.00
2019-02-25T18:03:42.233Z,4.93
2019-02-25T18:06:11.340Z,5.30
2019-02-25T18:08:40.454Z,6.20
2019-02-25T18:11:09.557Z,5.30
2019-02-25T18:13:38.720Z,4.93
2019-02-25T18:16:08.613Z,5.23
2019-02-25T18:18:39.069Z,4.00
2019-02-25T18:21:09.464Z,4.90
2019-02-25T18:23:38.647Z,5.37
2019-02-25T18:26:07.722Z,5.60
2019-02-25T18:28:37.425Z,5.23
2019-02-25T18:31:10.827Z,5.30
2019-02-25T18:33:38.258Z,5.47
2019-02-25T18:36:08.848Z,4.77
2019-02-25T18:38:38.155Z,5.47
2019-02-25T18:41:09.128Z,5.70
2019-02-25T18:43:38.138Z,6.10
2019-02-25T18:46:07.370Z,6.00
2019-02-25T18:48:36.421Z,5.50
2019-02-25T18:51:05.591Z,5.80
2019-02-25T18:53:35.374Z,6.20
2019-02-25T18:56:05.286Z,6.63
2019-02-25T18:58:35.415Z,6.47
2019-02-25T19:01:06.919Z,7.10
2019-02-25T19:03:38.082Z,7.00
2019-02-25T19:06:07.431Z,7.43
2019-02-25T19:08:36.857Z,6.90
2019-02-25T19:11:06.167Z,7.60
2019-02-25T19:13:35.392Z,6.47
2019-02-25T19:16:06.783Z,6.70
2019-02-25T19:18:36.678Z,8.43
2019-02-25T19:21:08.708Z,6.10
2019-02-25T19:23:39.393Z,7.20
2019-02-25T19:26:10.451Z,6.20
2019-02-25T19:28:39.301Z,6.80
2019-02-25T19:31:08.813Z,6.87
2019-02-25T19:33:38.005Z,7.97
2019-02-25T19:36:08.089Z,8.80
2019-02-25T19:38:41.942Z,9.40
2019-02-25T19:41:11.081Z,8.90
2019-02-25T19:43:39.411Z,7.40
2019-02-25T19:46:10.490Z,7.13
2019-02-25T19:48:39.811Z,7.40
2019-02-25T19:51:09.150Z,10.93
2019-02-25T19:53:38.820Z,8.50
2019-02-25T19:56:10.013Z,8.30
2019-02-25T19:58:40.985Z,9.23
2019-02-25T20:01:10.976Z,7.77
2019-02-25T20:03:42.733Z,8.40
2019-02-25T20:06:14.293Z,7.93
2019-02-25T20:08:42.401Z,9.90
2019-02-25T20:11:12.474Z,10.00
2019-02-25T20:13:42.975Z,10.93
2019-02-25T20:16:15.836Z,10.40
2019-02-25T20:18:43.135Z,9.47
2019-02-25T20:21:12.293Z,9.20
2019-02-25T20:23:41.370Z,10.63
2019-02-25T20:26:13.321Z,11.28
2019-02-25T20:28:43.328Z,10.10
2019-02-25T20:31:14.374Z,10.80
2019-02-25T20:33:43.110Z,8.87
2019-02-25T20:36:12.326Z,8.63
2019-02-25T20:38:41.406Z,9.80
2019-02-25T20:41:10.522Z,8.70
2019-02-25T20:43:39.698Z,9.00
2019-02-25T20:46:08.819Z,8.57
2019-02-25T20:48:38.012Z,8.03
2019-02-25T20:51:07.791Z,9.57
2019-02-25T20:53:38.029Z,9.60
2019-02-25T20:56:07.242Z,8.97
2019-02-25T20:58:38.362Z,9.03
2019-02-25T21:01:09.205Z,9.13
2019-02-25T21:03:41.529Z,9.37
2019-02-25T21:06:09.732Z,8.73
2019-02-25T21:08:39.967Z,9.67
2019-02-25T21:11:11.083Z,8.93
2019-02-25T21:13:40.882Z,8.80
2019-02-25T21:16:10.574Z,10.40
2019-02-25T21:18:39.774Z,9.30
2019-02-25T21:21:11.254Z,10.40
2019-02-25T21:23:39.719Z,9.57
2019-02-25T21:26:09.320Z,9.53
2019-02-25T21:28:40.467Z,10.87
2019-02-25T21:31:13.740Z,10.37
2019-02-25T21:33:44.842Z,10.10
2019-02-25T21:36:11.759Z,9.77
2019-02-25T21:38:40.738Z,9.83
2019-02-25T21:41:11.167Z,10.60
2019-02-25T21:43:43.370Z,9.97
2019-02-25T21:46:15.675Z,10.50
2019-02-25T21:48:42.032Z,10.67
2019-02-25T21:51:13.754Z,10.00
2019-02-25T21:53:41.917Z,9.70
2019-02-25T21:56:11.027Z,10.20
2019-02-25T21:58:40.125Z,9.83
2019-02-25T22:01:09.215Z,9.13
2019-02-25T22:03:41.303Z,11.80
2019-02-25T22:06:09.190Z,8.43
2019-02-25T22:08:38.218Z,10.50
2019-02-25T22:11:12.521Z,10.30
2019-02-25T22:13:37.968Z,11.13
2019-02-25T22:16:08.046Z,9.70
2019-02-25T22:18:37.061Z,10.40
2019-02-25T22:21:09.222Z,9.20
2019-02-25T22:23:37.185Z,10.23
2019-02-25T22:26:06.197Z,9.67
2019-02-25T22:28:37.034Z,9.63
2019-02-25T22:31:08.266Z,10.20
2019-02-25T22:33:36.639Z,9.60
2019-02-25T22:36:06.148Z,8.67
2019-02-25T22:38:35.292Z,9.13
2019-02-25T22:41:04.483Z,9.67
2019-02-25T22:43:33.630Z,8.87
2019-02-25T22:46:04.777Z,9.40
2019-02-25T22:48:35.707Z,8.87
2019-02-25T22:51:05.286Z,9.87
2019-02-25T22:53:35.082Z,9.37
2019-02-25T22:56:09.103Z,8.80
2019-02-25T22:58:36.659Z,9.00
2019-02-25T23:01:14.714Z,9.17
2019-02-25T23:03:44.942Z,9.13
2019-02-25T23:06:13.471Z,8.00
2019-02-25T23:08:44.303Z,9.17
2019-02-25T23:11:14.374Z,8.20
2019-02-25T23:13:45.718Z,8.33
2019-02-25T23:16:16.286Z,8.60
2019-02-25T23:18:47.791Z,8.03
2019-02-25T23:21:23.480Z,8.67
2019-02-25T23:23:51.264Z,8.60
2019-02-25T23:26:19.856Z,9.13
2019-02-25T23:28:50.581Z,9.10
